createdAt,value
2022-11-17T00:00:30.636Z,19.80
2022-11-17T00:05:36.129Z,20.70
2022-11-17T00:10:40.943Z,19.48
2022-11-17T00:15:45.638Z,20.83
2022-11-17T00:21:06.164Z,22.08
2022-11-17T00:26:11.047Z,19.55
2022-11-17T00:31:34.651Z,20.93
2022-11-17T00:36:40.443Z,21.45
2022-11-17T00:41:45.264Z,21.37
2022-11-17T00:46:48.608Z,21.05
2022-11-17T00:51:52.325Z,20.67
2022-11-17T00:56:57.257Z,18.55
2022-11-17T01:02:00.605Z,17.93
2022-11-17T01:07:04.019Z,18.27
2022-11-17T01:12:09.140Z,18.77
2022-11-17T01:17:12.429Z,19.92
2022-11-17T01:22:15.677Z,18.95
2022-11-17T01:27:20.304Z,21.08
2022-11-17T01:32:23.572Z,20.77
2022-11-17T01:37:27.914Z,21.65
2022-11-17T01:42:32.589Z,21.05
2022-11-17T01:47:45.641Z,20.70
2022-11-17T01:52:51.571Z,19.55
2022-11-17T01:57:59.887Z,18.42
2022-11-17T02:03:07.114Z,18.38
2022-11-17T02:08:11.287Z,19.02
2022-11-17T02:13:16.406Z,18.90
2022-11-17T02:18:20.099Z,17.48
2022-11-17T02:23:55.741Z,17.73
2022-11-17T02:29:11.191Z,16.50
2022-11-17T02:34:26.249Z,16.75
2022-11-17T02:39:34.812Z,17.75
2022-11-17T02:44:46.193Z,16.35
2022-11-17T02:49:54.874Z,17.83
2022-11-17T02:55:01.312Z,18.20
2022-11-17T03:00:08.778Z,20.55
2022-11-17T03:05:18.241Z,19.13
2022-11-17T03:10:26.732Z,19.05
2022-11-17T03:15:43.948Z,21.00
2022-11-17T03:20:53.999Z,19.73
2022-11-17T03:26:00.124Z,20.10
2022-11-17T03:31:09.433Z,19.83
2022-11-17T03:36:15.927Z,21.50
2022-11-17T03:41:20.832Z,21.43
2022-11-17T03:46:27.664Z,20.60
2022-11-17T03:51:33.958Z,20.08
2022-11-17T03:56:48.175Z,18.33
2022-11-17T04:01:53.325Z,18.88
2022-11-17T04:06:56.731Z,17.52
2022-11-17T04:12:17.279Z,17.20
2022-11-17T04:17:21.956Z,18.23
2022-11-17T04:22:25.217Z,18.67
2022-11-17T04:27:45.743Z,18.65
2022-11-17T04:32:50.412Z,19.90
2022-11-17T04:37:53.673Z,18.63
2022-11-17T04:42:56.954Z,19.10
2022-11-17T04:48:01.643Z,18.52
2022-11-17T04:53:04.923Z,19.17
2022-11-17T04:58:08.191Z,19.00
2022-11-17T05:03:13.734Z,17.80
2022-11-17T05:08:17.160Z,20.77
2022-11-17T05:13:25.094Z,18.70
2022-11-17T05:18:29.885Z,19.50
2022-11-17T05:23:50.860Z,18.10
2022-11-17T05:28:56.092Z,18.13
2022-11-17T05:34:01.513Z,19.23
2022-11-17T05:39:05.938Z,18.23
2022-11-17T05:44:09.292Z,19.17
2022-11-17T05:49:14.058Z,21.27
2022-11-17T05:54:17.325Z,23.00
2022-11-17T05:59:28.080Z,22.08
2022-11-17T06:04:33.673Z,22.35
2022-11-17T06:09:39.749Z,22.02
2022-11-17T06:14:43.074Z,22.17
2022-11-17T06:19:52.428Z,20.52
2022-11-17T06:24:56.631Z,20.27
2022-11-17T06:30:01.718Z,24.73
2022-11-17T06:35:08.863Z,21.80
2022-11-17T06:40:13.501Z,21.80
2022-11-17T06:45:16.946Z,22.08
2022-11-17T06:50:21.621Z,19.50
2022-11-17T06:55:24.939Z,21.38
2022-11-17T07:00:28.525Z,20.30
2022-11-17T07:05:34.360Z,17.90
2022-11-17T07:10:38.032Z,19.67
2022-11-17T07:15:41.344Z,20.27
2022-11-17T07:20:46.087Z,20.60
2022-11-17T07:25:49.351Z,18.42
2022-11-17T07:30:52.793Z,20.27
2022-11-17T07:35:57.763Z,19.33
2022-11-17T07:41:01.306Z,21.13
2022-11-17T07:46:06.496Z,19.88
2022-11-17T07:51:12.408Z,19.63
2022-11-17T07:56:16.000Z,18.05
2022-11-17T08:01:19.400Z,14.38
2022-11-17T08:06:25.006Z,16.02
2022-11-17T08:11:28.679Z,14.52
2022-11-17T08:16:32.204Z,15.50
2022-11-17T08:21:38.369Z,13.82
2022-11-17T08:26:41.697Z,14.07
2022-11-17T08:31:46.338Z,13.75
2022-11-17T08:36:51.118Z,14.90
2022-11-17T08:41:54.383Z,13.85
2022-11-17T08:46:57.614Z,13.07
2022-11-17T08:52:02.272Z,13.90
2022-11-17T08:57:05.621Z,13.83
2022-11-17T09:02:08.948Z,12.65
2022-11-17T09:07:13.625Z,12.98
2022-11-17T09:12:17.940Z,14.23
2022-11-17T09:17:21.193Z,13.40
2022-11-17T09:22:25.851Z,13.07
2022-11-17T09:27:29.093Z,13.10
2022-11-17T09:32:36.591Z,13.53
2022-11-17T09:37:41.212Z,13.18
2022-11-17T09:42:45.205Z,13.65
2022-11-17T09:48:06.968Z,12.70
2022-11-17T09:53:26.505Z,11.98
2022-11-17T09:58:35.831Z,11.45
2022-11-17T10:03:45.511Z,10.93
2022-11-17T10:09:00.406Z,9.77
2022-11-17T10:14:11.966Z,10.38
2022-11-17T10:19:18.192Z,10.87
2022-11-17T10:24:40.885Z,10.27
2022-11-17T10:29:57.937Z,9.27
2022-11-17T10:35:15.451Z,8.70
2022-11-17T10:40:25.350Z,9.10
2022-11-17T10:45:29.831Z,9.95
2022-11-17T10:50:33.189Z,8.63
2022-11-17T10:55:45.062Z,9.45
2022-11-17T11:00:54.446Z,11.70
2022-11-17T11:06:00.252Z,10.57
2022-11-17T11:11:10.005Z,10.88
2022-11-17T11:16:13.368Z,9.83
2022-11-17T11:21:27.634Z,8.82
2022-11-17T11:26:45.658Z,9.37
2022-11-17T11:32:01.931Z,9.33
2022-11-17T11:37:10.682Z,8.60
2022-11-17T11:42:45.202Z,8.50
2022-11-17T11:48:09.994Z,7.68
2022-11-17T11:53:20.003Z,6.67
2022-11-17T11:58:26.060Z,5.15
2022-11-17T12:03:35.195Z,5.50
2022-11-17T12:08:47.266Z,5.25
2022-11-17T12:13:54.483Z,3.43
2022-11-17T12:18:58.413Z,4.00
2022-11-17T12:24:14.205Z,5.30
2022-11-17T12:29:33.988Z,4.43
2022-11-17T12:34:37.977Z,3.70
2022-11-17T12:40:02.129Z,3.70
2022-11-17T12:45:12.271Z,3.63
2022-11-17T12:50:49.805Z,3.75
2022-11-17T12:56:26.478Z,2.47
2022-11-17T13:01:41.671Z,2.50
2022-11-17T13:07:00.903Z,2.22
2022-11-17T13:12:05.833Z,4.22
2022-11-17T13:17:13.474Z,4.00
2022-11-17T13:22:18.821Z,4.78
2022-11-17T13:27:24.669Z,1.87
2022-11-17T13:32:29.528Z,2.20
2022-11-17T13:37:33.013Z,3.50
2022-11-17T13:42:36.881Z,5.40
2022-11-17T13:47:47.363Z,2.83
2022-11-17T13:52:55.577Z,3.50
2022-11-17T13:58:01.780Z,3.42
2022-11-17T14:03:27.523Z,3.28
2022-11-17T14:08:33.353Z,6.30
2022-11-17T14:13:40.755Z,7.10
2022-11-17T14:18:55.660Z,3.33
2022-11-17T14:24:05.421Z,2.73
2022-11-17T14:29:12.485Z,3.30
2022-11-17T14:34:17.672Z,2.60
2022-11-17T14:39:21.157Z,3.00
2022-11-17T14:44:24.740Z,5.23
2022-11-17T14:49:29.480Z,6.90
2022-11-17T14:54:32.760Z,6.82
2022-11-17T14:59:36.077Z,7.63
2022-11-17T15:04:50.462Z,6.60
2022-11-17T15:09:54.893Z,10.73
2022-11-17T15:14:58.322Z,10.30
2022-11-17T15:20:03.087Z,13.73
2022-11-17T15:25:08.045Z,14.38
2022-11-17T15:30:12.254Z,17.08
2022-11-17T15:35:16.995Z,18.40
2022-11-17T15:40:20.616Z,18.23
2022-11-17T15:45:23.947Z,17.13
2022-11-17T15:50:28.678Z,19.05
2022-11-17T15:55:31.919Z,18.90
2022-11-17T16:00:35.482Z,18.13
2022-11-17T16:05:40.201Z,19.03
2022-11-17T16:10:43.464Z,20.80
2022-11-17T16:15:49.686Z,22.73
2022-11-17T16:20:57.876Z,22.23
2022-11-17T16:26:03.783Z,21.83
2022-11-17T16:31:18.035Z,23.10
2022-11-17T16:36:25.799Z,24.70
2022-11-17T16:41:32.111Z,25.70
2022-11-17T16:46:35.595Z,20.20
2022-11-17T16:51:40.940Z,21.23
2022-11-17T16:56:44.283Z,22.90
2022-11-17T17:01:49.776Z,29.23
2022-11-17T17:06:54.499Z,24.58
2022-11-17T17:12:01.355Z,25.87
2022-11-17T17:17:06.150Z,22.37
2022-11-17T17:22:11.379Z,20.37
2022-11-17T17:27:14.686Z,23.48
2022-11-17T17:32:18.003Z,20.58
2022-11-17T17:37:22.667Z,20.88
2022-11-17T17:42:25.993Z,18.83
2022-11-17T17:47:29.245Z,18.23
2022-11-17T17:52:34.169Z,19.07
2022-11-17T17:57:37.942Z,17.98
2022-11-17T18:02:41.854Z,18.95
2022-11-17T18:07:46.636Z,18.88
2022-11-17T18:12:49.997Z,22.73
2022-11-17T18:17:53.245Z,21.33
2022-11-17T18:22:58.050Z,20.80
2022-11-17T18:28:01.324Z,21.02
2022-11-17T18:33:04.632Z,20.83
2022-11-17T18:38:09.348Z,21.07
2022-11-17T18:43:12.627Z,23.08
2022-11-17T18:48:15.936Z,20.67
2022-11-17T18:53:20.587Z,23.45
2022-11-17T18:58:23.868Z,24.95
2022-11-17T19:03:27.187Z,23.63
2022-11-17T19:08:32.293Z,23.85
2022-11-17T19:13:36.859Z,23.30
2022-11-17T19:18:40.305Z,24.65
2022-11-17T19:23:51.417Z,25.10
2022-11-17T19:28:56.795Z,29.33
2022-11-17T19:34:00.655Z,30.33
2022-11-17T19:39:05.471Z,28.80
2022-11-17T19:44:10.442Z,30.50
2022-11-17T19:49:14.447Z,28.70
2022-11-17T19:54:19.417Z,27.87
2022-11-17T19:59:23.041Z,28.77
2022-11-17T20:04:26.413Z,26.37
2022-11-17T20:09:31.248Z,30.33
2022-11-17T20:14:34.522Z,27.13
2022-11-17T20:19:37.851Z,29.17
2022-11-17T20:24:42.519Z,32.33
2022-11-17T20:29:45.829Z,31.00
2022-11-17T20:34:49.108Z,30.10
2022-11-17T20:39:53.760Z,30.27
2022-11-17T20:44:57.103Z,31.20
2022-11-17T20:50:00.551Z,31.20
2022-11-17T20:55:06.132Z,32.20
2022-11-17T21:00:10.946Z,34.27
2022-11-17T21:05:14.398Z,33.33
2022-11-17T21:10:19.363Z,34.77
2022-11-17T21:15:22.642Z,31.35
2022-11-17T21:20:28.170Z,29.27
2022-11-17T21:25:32.885Z,26.80
2022-11-17T21:30:36.224Z,29.13
2022-11-17T21:35:39.679Z,30.30
2022-11-17T21:40:45.232Z,32.42
2022-11-17T21:45:48.609Z,29.80
2022-11-17T21:50:52.008Z,28.52
2022-11-17T21:56:01.541Z,28.83
2022-11-17T22:01:08.786Z,27.27
2022-11-17T22:06:14.609Z,27.33
2022-11-17T22:11:35.270Z,25.98
2022-11-17T22:16:40.828Z,26.77
2022-11-17T22:21:44.847Z,24.67
2022-11-17T22:26:51.615Z,24.13
2022-11-17T22:31:54.932Z,21.92
2022-11-17T22:36:58.200Z,23.65
2022-11-17T22:42:02.926Z,24.10
2022-11-17T22:47:06.423Z,24.37
2022-11-17T22:52:12.160Z,24.70
2022-11-17T22:57:16.799Z,24.00
2022-11-17T23:02:20.040Z,27.55
2022-11-17T23:07:23.391Z,24.33
2022-11-17T23:12:28.126Z,23.02
2022-11-17T23:17:31.464Z,22.40
2022-11-17T23:22:35.963Z,24.23
2022-11-17T23:27:40.674Z,22.67
2022-11-17T23:32:44.026Z,24.45
2022-11-17T23:37:47.336Z,23.23
2022-11-17T23:42:54.241Z,23.40
2022-11-17T23:47:57.523Z,26.17
2022-11-17T23:53:00.836Z,24.17
2022-11-17T23:58:06.023Z,24.08
